createdAt,value
2019-02-07T00:02:13.319Z,-0.30
2019-02-07T00:04:39.801Z,-0.40
2019-02-07T00:07:08.060Z,-0.40
2019-02-07T00:09:34.637Z,-0.40
2019-02-07T00:12:01.353Z,-0.30
2019-02-07T00:14:28.111Z,-0.30
2019-02-07T00:16:54.570Z,-0.40
2019-02-07T00:19:21.481Z,-0.40
2019-02-07T00:21:47.929Z,-0.40
2019-02-07T00:24:14.503Z,-0.40
2019-02-07T00:26:41.348Z,-0.40
2019-02-07T00:29:08.055Z,-0.40
2019-02-07T00:31:34.951Z,-0.30
2019-02-07T00:34:01.431Z,-0.30
2019-02-07T00:36:28.128Z,-0.20
2019-02-07T00:38:54.603Z,-0.10
2019-02-07T00:41:21.525Z,0.00
2019-02-07T00:43:48.335Z,0.00
2019-02-07T00:46:15.272Z,0.00
2019-02-07T00:48:42.200Z,0.00
2019-02-07T00:51:08.961Z,0.00
2019-02-07T00:53:35.656Z,0.00
2019-02-07T00:56:02.387Z,-0.10
2019-02-07T00:58:29.069Z,-0.10
2019-02-07T01:00:55.906Z,-0.10
2019-02-07T01:03:22.751Z,-0.20
2019-02-07T01:05:49.576Z,-0.20
2019-02-07T01:08:16.284Z,-0.20
2019-02-07T01:10:42.992Z,-0.20
2019-02-07T01:13:09.900Z,-0.20
2019-02-07T01:15:36.864Z,-0.20
2019-02-07T01:18:03.793Z,-0.30
2019-02-07T01:20:30.625Z,-0.20
2019-02-07T01:22:57.844Z,-0.20
2019-02-07T01:25:24.920Z,-0.20
2019-02-07T01:27:51.849Z,-0.20
2019-02-07T01:30:18.884Z,-0.30
2019-02-07T01:32:45.597Z,-0.30
2019-02-07T01:35:12.564Z,-0.30
2019-02-07T01:37:39.359Z,-0.40
2019-02-07T01:40:07.591Z,-0.40
2019-02-07T01:42:34.288Z,-0.30
2019-02-07T01:45:01.012Z,-0.30
2019-02-07T01:47:27.704Z,-0.30
2019-02-07T01:49:54.436Z,-0.30
2019-02-07T01:52:21.216Z,-0.30
2019-02-07T01:54:48.179Z,-0.20
2019-02-07T01:57:15.435Z,-0.20
2019-02-07T01:59:42.540Z,-0.20
2019-02-07T02:02:09.530Z,-0.30
2019-02-07T02:04:36.308Z,-0.30
2019-02-07T02:07:03.132Z,-0.30
2019-02-07T02:09:29.579Z,-0.30
2019-02-07T02:11:56.530Z,-0.40
2019-02-07T02:14:23.140Z,-0.40
2019-02-07T02:16:49.984Z,-0.40
2019-02-07T02:19:16.892Z,-0.40
2019-02-07T02:21:43.852Z,-0.50
2019-02-07T02:24:10.400Z,-0.50
2019-02-07T02:26:37.838Z,-0.50
2019-02-07T02:29:04.869Z,-0.60
2019-02-07T02:31:31.343Z,-0.60
2019-02-07T02:33:58.367Z,-0.60
2019-02-07T02:36:24.843Z,-0.60
2019-02-07T02:38:51.376Z,-0.70
2019-02-07T02:41:18.203Z,-0.70
2019-02-07T02:43:44.658Z,-0.80
2019-02-07T02:46:11.133Z,-0.80
2019-02-07T02:48:37.938Z,-0.80
2019-02-07T02:51:04.676Z,-0.80
2019-02-07T02:53:31.348Z,-0.80
2019-02-07T02:56:00.241Z,-0.80
2019-02-07T02:58:26.780Z,-0.80
2019-02-07T03:01:21.978Z,-0.90
2019-02-07T03:04:07.156Z,-0.80
2019-02-07T03:06:42.439Z,-0.90
2019-02-07T03:09:14.452Z,-0.90
2019-02-07T03:11:59.042Z,-0.90
2019-02-07T03:14:45.580Z,-0.90
2019-02-07T03:17:40.793Z,-1.00
2019-02-07T03:20:27.284Z,-0.90
2019-02-07T03:23:11.779Z,-0.90
2019-02-07T03:25:52.368Z,-0.90
2019-02-07T03:28:34.172Z,-0.90
2019-02-07T03:31:29.654Z,-0.90
2019-02-07T03:34:11.657Z,-0.90
2019-02-07T03:36:45.893Z,-1.00
2019-02-07T03:39:20.736Z,-1.00
2019-02-07T03:41:58.408Z,-1.00
2019-02-07T03:44:44.466Z,-1.00
2019-02-07T03:47:32.120Z,-1.00
2019-02-07T03:50:21.772Z,-1.00
2019-02-07T03:53:10.607Z,-1.00
2019-02-07T03:55:48.118Z,-1.00
2019-02-07T03:58:40.215Z,-1.00
2019-02-07T04:01:27.060Z,-1.00
2019-02-07T04:04:17.840Z,-1.10
2019-02-07T04:07:18.786Z,-1.10
2019-02-07T04:09:57.315Z,-1.10
2019-02-07T04:12:58.846Z,-1.10
2019-02-07T04:15:38.312Z,-1.10
2019-02-07T04:18:24.781Z,-1.10
2019-02-07T04:21:00.906Z,-1.20
2019-02-07T04:23:42.630Z,-1.20
2019-02-07T04:26:28.082Z,-1.20
2019-02-07T04:29:13.026Z,-1.30
2019-02-07T04:31:53.528Z,-1.30
2019-02-07T04:34:39.948Z,-1.30
2019-02-07T04:37:29.271Z,-1.40
2019-02-07T04:40:14.002Z,-1.40
2019-02-07T04:43:00.888Z,-1.40
2019-02-07T04:45:42.440Z,-1.40
2019-02-07T04:48:26.940Z,-1.40
2019-02-07T04:51:01.984Z,-1.40
2019-02-07T04:53:46.697Z,-1.50
2019-02-07T04:56:22.519Z,-1.50
2019-02-07T04:59:07.928Z,-1.50
2019-02-07T05:01:42.793Z,-1.50
2019-02-07T05:04:25.300Z,-1.50
2019-02-07T05:07:08.029Z,-1.50
2019-02-07T05:09:43.761Z,-1.50
2019-02-07T05:12:28.229Z,-1.50
2019-02-07T05:15:06.831Z,-1.50
2019-02-07T05:17:51.647Z,-1.50
2019-02-07T05:20:26.855Z,-1.50
2019-02-07T05:23:15.276Z,-1.50
2019-02-07T05:25:53.728Z,-1.50
2019-02-07T05:28:42.462Z,-1.50
2019-02-07T05:31:26.892Z,-1.60
2019-02-07T05:34:04.184Z,-1.60
2019-02-07T05:36:52.123Z,-1.60
2019-02-07T05:39:47.473Z,-1.60
2019-02-07T05:42:22.935Z,-1.60
2019-02-07T05:45:07.543Z,-1.60
2019-02-07T05:47:46.459Z,-1.60
2019-02-07T05:50:38.319Z,-1.60
2019-02-07T05:53:23.090Z,-1.60
2019-02-07T05:56:10.571Z,-1.60
2019-02-07T05:58:46.715Z,-1.60
2019-02-07T06:01:32.626Z,-1.50
2019-02-07T06:04:23.711Z,-1.50
2019-02-07T06:07:14.212Z,-1.40
2019-02-07T06:09:49.401Z,-1.30
2019-02-07T06:12:33.866Z,-1.20
2019-02-07T06:15:11.987Z,-1.10
2019-02-07T06:18:02.647Z,-1.00
2019-02-07T06:20:38.738Z,-0.90
2019-02-07T06:23:15.349Z,-0.90
2019-02-07T06:26:02.720Z,-0.80
2019-02-07T06:29:01.275Z,-0.70
2019-02-07T06:31:47.984Z,-0.70
2019-02-07T06:34:34.128Z,-0.80
2019-02-07T06:37:25.897Z,-0.90
2019-02-07T06:40:20.363Z,-0.90
2019-02-07T06:43:15.299Z,-1.00
2019-02-07T06:45:57.304Z,-1.00
2019-02-07T06:48:48.516Z,-1.00
2019-02-07T06:51:27.395Z,-1.00
2019-02-07T06:54:05.616Z,-0.90
2019-02-07T06:57:04.003Z,-0.80
2019-02-07T07:00:01.923Z,-0.70
2019-02-07T07:02:36.432Z,-0.60
2019-02-07T07:05:21.565Z,-0.50
2019-02-07T07:08:01.743Z,-0.50
2019-02-07T07:10:46.431Z,-0.50
2019-02-07T07:13:21.976Z,-0.40
2019-02-07T07:16:06.712Z,-0.30
2019-02-07T07:18:47.831Z,-0.10
2019-02-07T07:21:32.543Z,-0.10
2019-02-07T07:24:13.468Z,-0.20
2019-02-07T07:26:50.888Z,-0.30
2019-02-07T07:29:34.564Z,-0.40
2019-02-07T07:32:19.364Z,-0.40
2019-02-07T07:35:07.176Z,-0.40
2019-02-07T07:37:41.633Z,-0.40
2019-02-07T07:40:29.099Z,-0.40
2019-02-07T07:43:24.255Z,-0.40
2019-02-07T07:46:16.145Z,-0.30
2019-02-07T07:49:00.876Z,-0.40
2019-02-07T07:51:45.759Z,-0.40
2019-02-07T07:54:32.154Z,-0.50
2019-02-07T07:57:21.439Z,-0.50
2019-02-07T07:59:57.440Z,-0.50
2019-02-07T08:02:32.280Z,-0.50
2019-02-07T08:05:16.863Z,-0.50
2019-02-07T08:07:57.975Z,-0.50
2019-02-07T08:10:44.611Z,-0.50
2019-02-07T08:13:33.499Z,-0.50
2019-02-07T08:16:11.828Z,-0.50
2019-02-07T08:18:57.910Z,-0.60
2019-02-07T08:21:46.355Z,-0.60
2019-02-07T08:24:22.820Z,-0.70
2019-02-07T08:27:04.932Z,-0.70
2019-02-07T08:29:43.533Z,-0.70
2019-02-07T08:32:25.168Z,-0.70
2019-02-07T08:35:00.992Z,-0.40
2019-02-07T08:37:39.492Z,0.00
2019-02-07T08:40:14.324Z,0.40
2019-02-07T08:43:04.088Z,0.50
2019-02-07T08:45:47.823Z,0.50
2019-02-07T08:48:23.402Z,0.50
2019-02-07T08:51:05.872Z,0.50
2019-02-07T08:53:54.359Z,0.50
2019-02-07T08:56:39.387Z,0.80
2019-02-07T08:59:16.772Z,0.90
2019-02-07T09:02:01.628Z,0.90
2019-02-07T09:04:48.296Z,1.00
2019-02-07T09:07:34.064Z,1.00
2019-02-07T09:10:24.212Z,1.10
2019-02-07T09:13:09.307Z,1.20
2019-02-07T09:15:42.452Z,1.30
2019-02-07T09:18:29.053Z,1.40
2019-02-07T09:21:11.288Z,1.60
2019-02-07T09:24:07.865Z,1.70
2019-02-07T09:26:52.668Z,1.80
2019-02-07T09:29:38.816Z,1.90
2019-02-07T09:32:26.556Z,1.90
2019-02-07T09:35:12.828Z,1.90
2019-02-07T09:38:07.560Z,1.90
2019-02-07T09:40:52.243Z,2.00
2019-02-07T09:43:33.599Z,2.00
2019-02-07T09:46:12.429Z,2.10
2019-02-07T09:48:54.846Z,2.10
2019-02-07T09:51:29.475Z,2.10
2019-02-07T09:54:10.687Z,2.20
2019-02-07T09:56:48.399Z,2.20
2019-02-07T09:59:46.672Z,2.20
2019-02-07T10:02:35.781Z,2.10
2019-02-07T10:05:30.051Z,2.00
2019-02-07T10:08:14.784Z,2.00
2019-02-07T10:10:49.520Z,2.00
2019-02-07T10:13:23.591Z,2.00
2019-02-07T10:16:13.551Z,2.00
2019-02-07T10:18:57.201Z,2.10
2019-02-07T10:21:58.348Z,2.10
2019-02-07T10:24:43.616Z,2.20
2019-02-07T10:27:32.832Z,2.20
2019-02-07T10:30:19.236Z,2.30
2019-02-07T10:33:08.861Z,2.40
2019-02-07T10:36:13.091Z,2.60
2019-02-07T10:39:00.772Z,2.60
2019-02-07T10:41:53.143Z,2.70
2019-02-07T10:44:27.447Z,2.90
2019-02-07T10:47:10.429Z,3.00
2019-02-07T10:49:59.690Z,3.20
2019-02-07T10:52:44.608Z,3.20
2019-02-07T10:55:18.140Z,3.10
2019-02-07T10:58:13.284Z,3.00
2019-02-07T11:00:53.118Z,2.90
2019-02-07T11:03:35.248Z,2.90
2019-02-07T11:06:21.148Z,3.00
2019-02-07T11:09:05.781Z,3.30
2019-02-07T11:11:47.156Z,3.70
2019-02-07T11:14:31.642Z,3.80
2019-02-07T11:17:08.816Z,3.90
2019-02-07T11:19:57.900Z,4.20
2019-02-07T11:22:30.409Z,4.30
2019-02-07T11:25:19.856Z,4.10
2019-02-07T11:28:10.979Z,4.00
2019-02-07T11:30:52.000Z,3.80
2019-02-07T11:33:36.838Z,3.60
2019-02-07T11:36:21.335Z,3.40
2019-02-07T11:39:06.349Z,3.30
2019-02-07T11:41:51.739Z,3.20
2019-02-07T11:44:44.135Z,3.00
2019-02-07T11:47:31.271Z,2.90
2019-02-07T11:50:26.779Z,3.10
2019-02-07T11:53:17.480Z,3.60
2019-02-07T11:55:55.491Z,4.10
2019-02-07T11:58:48.099Z,4.10
2019-02-07T12:01:37.450Z,3.90
2019-02-07T12:04:26.043Z,3.60
2019-02-07T12:07:11.188Z,3.40
2019-02-07T12:09:56.300Z,3.20
2019-02-07T12:13:00.664Z,3.00
2019-02-07T12:15:35.788Z,2.70
2019-02-07T12:18:09.892Z,2.50
2019-02-07T12:20:59.236Z,2.60
2019-02-07T12:23:39.502Z,2.70
2019-02-07T12:26:24.352Z,2.90
2019-02-07T12:28:58.956Z,2.90
2019-02-07T12:31:43.807Z,2.90
2019-02-07T12:34:30.259Z,3.00
2019-02-07T12:37:06.764Z,2.90
2019-02-07T12:39:58.849Z,2.80
2019-02-07T12:42:43.809Z,2.80
2019-02-07T12:45:30.777Z,2.80
2019-02-07T12:48:08.328Z,2.90
2019-02-07T12:50:57.963Z,2.90
2019-02-07T12:53:32.065Z,2.90
2019-02-07T12:56:23.080Z,2.90
2019-02-07T12:59:09.290Z,2.80
2019-02-07T13:01:42.664Z,2.90
2019-02-07T13:04:28.323Z,2.90
2019-02-07T13:07:06.996Z,2.80
2019-02-07T13:10:02.279Z,2.80
2019-02-07T13:12:37.648Z,2.80
2019-02-07T13:15:12.984Z,2.70
2019-02-07T13:17:57.572Z,2.80
2019-02-07T13:20:52.534Z,2.80
2019-02-07T13:23:36.821Z,2.80
2019-02-07T13:26:28.693Z,2.80
2019-02-07T13:29:17.856Z,2.80
2019-02-07T13:32:10.369Z,2.80
2019-02-07T13:34:55.156Z,2.70
2019-02-07T13:37:50.682Z,2.70
2019-02-07T13:40:37.220Z,2.80
2019-02-07T13:43:26.633Z,2.90
2019-02-07T13:46:21.803Z,2.80
2019-02-07T13:49:07.064Z,2.90
2019-02-07T13:51:47.004Z,2.80
2019-02-07T13:54:23.144Z,2.70
2019-02-07T13:57:07.995Z,2.80
2019-02-07T14:00:00.762Z,2.80
2019-02-07T14:02:38.284Z,2.90
2019-02-07T14:05:17.208Z,2.90
2019-02-07T14:08:07.896Z,3.10
2019-02-07T14:10:58.204Z,3.20
2019-02-07T14:13:46.597Z,3.10
2019-02-07T14:16:31.588Z,3.10
2019-02-07T14:19:17.936Z,3.10
2019-02-07T14:22:00.412Z,3.00
2019-02-07T14:24:55.340Z,3.00
2019-02-07T14:27:47.672Z,2.90
2019-02-07T14:30:48.948Z,2.90
2019-02-07T14:33:34.385Z,2.80
2019-02-07T14:36:12.035Z,2.70
2019-02-07T14:39:04.012Z,2.70
2019-02-07T14:41:39.727Z,2.70
2019-02-07T14:44:24.488Z,2.70
2019-02-07T14:46:52.036Z,2.70
2019-02-07T14:49:18.584Z,2.60
2019-02-07T14:51:45.548Z,2.60
2019-02-07T14:54:12.809Z,2.60
2019-02-07T14:56:39.506Z,2.60
2019-02-07T14:59:06.243Z,2.60
2019-02-07T15:01:32.941Z,2.70
2019-02-07T15:03:59.700Z,2.60
2019-02-07T15:06:26.475Z,2.60
2019-02-07T15:08:53.303Z,2.60
2019-02-07T15:11:19.748Z,2.50
2019-02-07T15:13:46.427Z,2.50
2019-02-07T15:16:13.132Z,2.50
2019-02-07T15:18:39.940Z,2.40
2019-02-07T15:21:06.869Z,2.40
2019-02-07T15:23:33.696Z,2.40
2019-02-07T15:26:00.524Z,2.40
2019-02-07T15:28:26.971Z,2.30
2019-02-07T15:30:53.676Z,2.30
2019-02-07T15:33:20.546Z,2.20
2019-02-07T15:35:48.068Z,2.20
2019-02-07T15:38:14.525Z,2.20
2019-02-07T15:40:41.100Z,2.10
2019-02-07T15:43:08.203Z,2.10
2019-02-07T15:45:34.695Z,2.00
2019-02-07T15:48:01.140Z,2.00
2019-02-07T15:50:37.513Z,1.90
2019-02-07T15:52:58.436Z,1.90
2019-02-07T15:55:24.912Z,1.90
2019-02-07T15:57:51.667Z,1.80
2019-02-07T16:00:33.984Z,1.80
2019-02-07T16:03:03.943Z,1.80
2019-02-07T16:05:31.072Z,1.70
2019-02-07T16:07:57.521Z,1.70
2019-02-07T16:10:24.105Z,1.70
2019-02-07T16:12:50.757Z,1.60
2019-02-07T16:15:17.484Z,1.50
2019-02-07T16:17:44.163Z,1.50
2019-02-07T16:20:12.217Z,1.50
2019-02-07T16:22:39.048Z,1.50
2019-02-07T16:25:06.187Z,1.60
2019-02-07T16:27:32.727Z,1.60
2019-02-07T16:29:59.236Z,1.60
2019-02-07T16:32:25.698Z,1.60
2019-02-07T16:34:52.268Z,1.70
2019-02-07T16:37:18.716Z,1.70
2019-02-07T16:39:45.484Z,1.70
2019-02-07T16:42:12.475Z,1.70
2019-02-07T16:44:38.949Z,1.80
2019-02-07T16:47:05.504Z,1.80
2019-02-07T16:49:32.563Z,1.90
2019-02-07T16:51:59.024Z,1.90
2019-02-07T16:54:25.740Z,2.00
2019-02-07T16:56:52.467Z,1.90
2019-02-07T16:59:18.912Z,2.00
2019-02-07T17:01:46.272Z,2.00
2019-02-07T17:04:13.173Z,1.90
2019-02-07T17:06:39.657Z,2.00
2019-02-07T17:09:09.343Z,1.90
2019-02-07T17:11:36.072Z,1.90
2019-02-07T17:14:02.786Z,1.90
2019-02-07T17:16:29.604Z,1.90
2019-02-07T17:18:56.297Z,1.90
2019-02-07T17:21:22.808Z,1.80
2019-02-07T17:23:49.596Z,1.80
2019-02-07T17:26:16.076Z,1.70
2019-02-07T17:28:42.781Z,1.70
2019-02-07T17:31:09.610Z,1.70
2019-02-07T17:33:36.057Z,1.70
2019-02-07T17:36:02.540Z,1.60
2019-02-07T17:38:29.442Z,1.60
2019-02-07T17:40:56.170Z,1.60
2019-02-07T17:43:22.715Z,1.60
2019-02-07T17:45:49.683Z,1.60
2019-02-07T17:48:16.608Z,1.60
2019-02-07T17:50:43.356Z,1.60
2019-02-07T17:53:09.875Z,1.60
2019-02-07T17:55:36.447Z,1.60
2019-02-07T17:58:03.248Z,1.70
2019-02-07T18:00:40.096Z,1.70
2019-02-07T18:03:06.872Z,1.70
2019-02-07T18:05:33.600Z,1.70
2019-02-07T18:08:00.148Z,1.70
2019-02-07T18:10:28.595Z,1.70
2019-02-07T18:12:54.989Z,1.70
2019-02-07T18:15:22.092Z,1.70
2019-02-07T18:17:48.848Z,1.70
2019-02-07T18:20:15.574Z,1.60
2019-02-07T18:22:42.353Z,1.70
2019-02-07T18:25:09.279Z,1.70
2019-02-07T18:27:36.033Z,1.70
2019-02-07T18:30:03.056Z,1.70
2019-02-07T18:32:30.015Z,1.80
2019-02-07T18:34:57.141Z,1.70
2019-02-07T18:37:24.099Z,1.80
2019-02-07T18:39:50.796Z,1.80
2019-02-07T18:42:17.272Z,1.80
2019-02-07T18:44:43.980Z,1.70
2019-02-07T18:47:10.564Z,1.80
2019-02-07T18:49:37.214Z,1.80
2019-02-07T18:52:04.053Z,1.80
2019-02-07T18:54:30.899Z,1.80
2019-02-07T18:56:57.464Z,1.90
2019-02-07T18:59:23.915Z,1.80
2019-02-07T19:01:50.649Z,1.80
2019-02-07T19:04:17.740Z,1.80
2019-02-07T19:06:44.320Z,1.80
2019-02-07T19:09:11.005Z,1.80
2019-02-07T19:11:37.825Z,1.80
2019-02-07T19:14:04.943Z,1.80
2019-02-07T19:16:31.676Z,1.80
2019-02-07T19:18:58.380Z,1.80
2019-02-07T19:21:25.137Z,1.80
2019-02-07T19:23:51.842Z,1.80
2019-02-07T19:26:18.652Z,1.80
2019-02-07T19:28:45.096Z,1.80
2019-02-07T19:31:11.808Z,1.80
2019-02-07T19:33:39.064Z,1.80
2019-02-07T19:36:05.763Z,1.80
2019-02-07T19:38:32.970Z,1.80
2019-02-07T19:40:59.847Z,1.80
2019-02-07T19:43:26.328Z,1.80
2019-02-07T19:45:53.028Z,1.80
2019-02-07T19:48:19.512Z,1.80
2019-02-07T19:50:46.532Z,1.80
2019-02-07T19:53:13.012Z,1.80
2019-02-07T19:55:39.720Z,1.80
2019-02-07T19:58:06.205Z,1.80
2019-02-07T20:00:32.995Z,1.80
2019-02-07T20:02:59.748Z,1.90
2019-02-07T20:05:26.445Z,1.90
2019-02-07T20:07:52.924Z,1.90
2019-02-07T20:10:19.960Z,1.90
2019-02-07T20:12:47.208Z,1.90
2019-02-07T20:15:18.231Z,1.90
2019-02-07T20:17:44.955Z,1.90
2019-02-07T20:20:11.872Z,1.90
2019-02-07T20:22:38.447Z,1.90
2019-02-07T20:25:05.907Z,1.90
2019-02-07T20:27:32.736Z,1.90
2019-02-07T20:29:59.193Z,1.90
2019-02-07T20:32:25.899Z,1.90
2019-02-07T20:34:53.011Z,1.90
2019-02-07T20:37:19.738Z,1.90
2019-02-07T20:39:46.539Z,1.90
2019-02-07T20:42:13.360Z,1.80
2019-02-07T20:44:40.384Z,1.80
2019-02-07T20:47:07.090Z,1.80
2019-02-07T20:49:33.896Z,1.80
2019-02-07T20:52:00.372Z,1.80
2019-02-07T20:54:27.167Z,1.70
2019-02-07T20:56:54.496Z,1.60
2019-02-07T20:59:21.326Z,1.70
2019-02-07T21:01:48.100Z,1.60
2019-02-07T21:04:14.832Z,1.60
2019-02-07T21:06:41.635Z,1.70
2019-02-07T21:09:08.834Z,1.60
2019-02-07T21:11:35.943Z,1.60
2019-02-07T21:14:02.576Z,1.60
2019-02-07T21:16:29.276Z,1.70
2019-02-07T21:18:56.336Z,1.80
2019-02-07T21:21:22.887Z,1.90
2019-02-07T21:23:49.469Z,1.80
2019-02-07T21:26:16.243Z,1.90
2019-02-07T21:28:43.304Z,1.80
2019-02-07T21:31:09.988Z,1.80
2019-02-07T21:33:36.724Z,1.90
2019-02-07T21:36:03.427Z,1.90
2019-02-07T21:38:30.788Z,1.90
2019-02-07T21:40:57.496Z,2.00
2019-02-07T21:43:24.780Z,2.00
2019-02-07T21:45:51.455Z,2.00
2019-02-07T21:48:18.288Z,2.00
2019-02-07T21:50:44.840Z,2.00
2019-02-07T21:53:12.284Z,2.10
2019-02-07T21:55:38.966Z,2.10
2019-02-07T21:58:05.825Z,2.00
2019-02-07T22:00:33.691Z,2.00
2019-02-07T22:03:00.400Z,1.90
2019-02-07T22:05:27.205Z,1.90
2019-02-07T22:07:54.256Z,1.90
2019-02-07T22:10:20.940Z,1.80
2019-02-07T22:12:47.688Z,1.80
2019-02-07T22:15:15.444Z,1.80
2019-02-07T22:17:43.059Z,1.80
2019-02-07T22:20:11.283Z,1.70
2019-02-07T22:22:38.011Z,1.70
2019-02-07T22:25:04.700Z,1.80
2019-02-07T22:27:31.492Z,1.80
2019-02-07T22:29:57.970Z,1.90
2019-02-07T22:32:24.671Z,1.90
2019-02-07T22:34:51.377Z,1.90
2019-02-07T22:37:18.475Z,1.80
2019-02-07T22:39:45.435Z,1.60
2019-02-07T22:42:12.131Z,1.50
2019-02-07T22:44:38.613Z,1.40
2019-02-07T22:47:05.416Z,1.40
2019-02-07T22:49:32.272Z,1.30
2019-02-07T22:51:58.971Z,1.20
2019-02-07T22:54:25.679Z,1.20
2019-02-07T22:56:52.909Z,1.10
2019-02-07T22:59:19.583Z,1.10
2019-02-07T23:01:48.039Z,1.00
2019-02-07T23:04:14.984Z,1.00
2019-02-07T23:06:41.679Z,0.90
2019-02-07T23:09:09.556Z,0.90
2019-02-07T23:11:36.248Z,0.90
2019-02-07T23:14:02.751Z,0.90
2019-02-07T23:16:29.748Z,0.90
2019-02-07T23:18:56.233Z,0.80
2019-02-07T23:21:23.355Z,0.80
2019-02-07T23:23:50.068Z,0.80
2019-02-07T23:26:17.080Z,0.70
2019-02-07T23:28:44.039Z,0.70
2019-02-07T23:31:10.496Z,0.70
2019-02-07T23:33:37.583Z,0.70
2019-02-07T23:36:04.964Z,0.70
2019-02-07T23:38:31.444Z,0.80
2019-02-07T23:40:58.225Z,0.90
2019-02-07T23:43:24.924Z,0.90
2019-02-07T23:45:51.758Z,0.90
2019-02-07T23:48:18.568Z,0.90
2019-02-07T23:50:45.384Z,0.90
2019-02-07T23:53:15.307Z,0.90
2019-02-07T23:55:40.204Z,0.90
2019-02-07T23:58:06.888Z,0.90
